sensor_id;sensor_type;location;lat;lon;timestamp;pressure;altitude;pressure_sealevel;temperature;humidity
32747;BME280;19118;50.860;13.662;2023-11-22T00:00:11;97352.41;;;2.68;100.00
32747;BME280;19118;50.860;13.662;2023-11-22T00:05:12;97349.81;;;3.25;100.00
32747;BME280;19118;50.860;13.662;2023-11-22T00:10:13;97351.00;;;2.93;100.00
32747;BME280;19118;50.860;13.662;2023-11-22T00:15:14;97337.53;;;2.88;100.00
32747;BME280;19118;50.860;13.662;2023-11-22T00:20:18;97345.44;;;3.15;100.00
32747;BME280;19118;50.860;13.662;2023-11-22T00:25:18;97355.41;;;2.92;100.00
32747;BME280;19118;50.860;13.662;2023-11-22T00:30:19;97357.91;;;2.84;100.00
32747;BME280;19118;50.860;13.662;2023-11-22T00:35:20;97357.78;;;2.57;100.00
32747;BME280;19118;50.860;13.662;2023-11-22T00:40:21;97351.84;;;2.84;100.00
32747;BME280;19118;50.860;13.662;2023-11-22T00:45:21;97367.72;;;3.19;100.00
32747;BME280;19118;50.860;13.662;2023-11-22T00:50:22;97381.00;;;2.70;100.00
32747;BME280;19118;50.860;13.662;2023-11-22T00:55:22;97384.47;;;2.60;100.00
32747;BME280;19118;50.860;13.662;2023-11-22T01:00:23;97386.25;;;2.50;100.00
32747;BME280;19118;50.860;13.662;2023-11-22T01:05:25;97396.09;;;2.37;100.00
32747;BME280;19118;50.860;13.662;2023-11-22T01:10:25;97394.47;;;2.46;100.00
32747;BME280;19118;50.860;13.662;2023-11-22T01:15:26;97407.25;;;2.87;100.00
32747;BME280;19118;50.860;13.662;2023-11-22T01:20:26;97413.00;;;2.72;100.00
32747;BME280;19118;50.860;13.662;2023-11-22T01:25:27;97418.91;;;2.45;100.00
32747;BME280;19118;50.860;13.662;2023-11-22T01:30:28;97438.69;;;3.05;100.00
32747;BME280;19118;50.860;13.662;2023-11-22T01:35:29;97443.78;;;2.49;100.00
32747;BME280;19118;50.860;13.662;2023-11-22T01:40:30;97448.47;;;2.55;100.00
32747;BME280;19118;50.860;13.662;2023-11-22T01:45:30;97455.16;;;2.28;100.00
32747;BME280;19118;50.860;13.662;2023-11-22T01:50:31;97445.19;;;2.03;100.00
32747;BME280;19118;50.860;13.662;2023-11-22T01:55:32;97434.66;;;2.04;100.00
32747;BME280;19118;50.860;13.662;2023-11-22T02:00:38;97451.34;;;2.42;100.00
32747;BME280;19118;50.860;13.662;2023-11-22T02:05:42;97456.00;;;2.29;100.00
32747;BME280;19118;50.860;13.662;2023-11-22T02:10:42;97454.91;;;2.31;100.00
32747;BME280;19118;50.860;13.662;2023-11-22T02:15:44;97449.06;;;2.09;100.00
32747;BME280;19118;50.860;13.662;2023-11-22T02:20:46;97454.91;;;2.41;100.00
32747;BME280;19118;50.860;13.662;2023-11-22T02:25:47;97471.28;;;1.93;100.00
32747;BME280;19118;50.860;13.662;2023-11-22T02:30:47;97462.06;;;2.39;100.00
32747;BME280;19118;50.860;13.662;2023-11-22T02:35:47;97476.91;;;2.39;100.00
32747;BME280;19118;50.860;13.662;2023-11-22T02:40:48;97488.44;;;2.55;100.00
32747;BME280;19118;50.860;13.662;2023-11-22T02:45:50;97486.06;;;1.83;100.00
32747;BME280;19118;50.860;13.662;2023-11-22T02:50:50;97495.44;;;2.45;100.00
32747;BME280;19118;50.860;13.662;2023-11-22T02:55:51;97504.47;;;1.91;100.00
32747;BME280;19118;50.860;13.662;2023-11-22T03:00:51;97510.44;;;1.72;100.00
32747;BME280;19118;50.860;13.662;2023-11-22T03:05:54;97519.31;;;2.00;100.00
32747;BME280;19118;50.860;13.662;2023-11-22T03:10:55;97507.72;;;2.74;100.00
32747;BME280;19118;50.860;13.662;2023-11-22T03:16:19;97506.78;;;2.84;100.00
32747;BME280;19118;50.860;13.662;2023-11-22T03:21:20;97502.34;;;2.06;100.00
32747;BME280;19118;50.860;13.662;2023-11-22T03:26:20;97506.56;;;1.97;100.00
32747;BME280;19118;50.860;13.662;2023-11-22T03:31:21;97520.00;;;2.33;100.00
32747;BME280;19118;50.860;13.662;2023-11-22T03:36:21;97529.56;;;2.73;100.00
32747;BME280;19118;50.860;13.662;2023-11-22T03:41:23;97545.66;;;2.78;100.00
32747;BME280;19118;50.860;13.662;2023-11-22T03:46:23;97546.78;;;2.85;100.00
32747;BME280;19118;50.860;13.662;2023-11-22T03:51:23;97567.19;;;2.20;100.00
32747;BME280;19118;50.860;13.662;2023-11-22T03:56:24;97575.56;;;2.54;100.00
32747;BME280;19118;50.860;13.662;2023-11-22T04:01:24;97580.47;;;2.38;100.00
32747;BME280;19118;50.860;13.662;2023-11-22T04:06:25;97583.41;;;2.24;100.00
32747;BME280;19118;50.860;13.662;2023-11-22T04:11:25;97595.56;;;2.14;100.00
32747;BME280;19118;50.860;13.662;2023-11-22T04:16:28;97608.38;;;2.57;100.00
32747;BME280;19118;50.860;13.662;2023-11-22T04:21:28;97617.66;;;2.10;100.00
32747;BME280;19118;50.860;13.662;2023-11-22T04:26:29;97628.09;;;2.10;100.00
32747;BME280;19118;50.860;13.662;2023-11-22T04:31:30;97641.91;;;2.21;100.00
32747;BME280;19118;50.860;13.662;2023-11-22T04:36:30;97638.81;;;2.37;100.00
32747;BME280;19118;50.860;13.662;2023-11-22T04:41:31;97645.94;;;2.66;100.00
32747;BME280;19118;50.860;13.662;2023-11-22T04:46:31;97659.53;;;2.69;100.00
32747;BME280;19118;50.860;13.662;2023-11-22T04:51:32;97657.34;;;2.65;100.00
32747;BME280;19118;50.860;13.662;2023-11-22T04:56:32;97664.13;;;2.16;100.00
32747;BME280;19118;50.860;13.662;2023-11-22T05:01:33;97668.19;;;2.09;100.00
32747;BME280;19118;50.860;13.662;2023-11-22T05:06:33;97672.66;;;2.48;100.00
32747;BME280;19118;50.860;13.662;2023-11-22T05:11:33;97673.72;;;2.15;100.00
32747;BME280;19118;50.860;13.662;2023-11-22T05:16:34;97689.66;;;1.80;100.00
32747;BME280;19118;50.860;13.662;2023-11-22T05:21:34;97699.09;;;2.34;100.00
32747;BME280;19118;50.860;13.662;2023-11-22T05:26:35;97698.13;;;2.35;100.00
32747;BME280;19118;50.860;13.662;2023-11-22T05:31:35;97699.81;;;2.67;100.00
32747;BME280;19118;50.860;13.662;2023-11-22T05:36:37;97694.84;;;2.33;100.00
32747;BME280;19118;50.860;13.662;2023-11-22T05:41:38;97695.75;;;1.69;100.00
32747;BME280;19118;50.860;13.662;2023-11-22T05:46:38;97696.59;;;1.91;100.00
32747;BME280;19118;50.860;13.662;2023-11-22T05:51:38;97691.03;;;2.68;100.00
32747;BME280;19118;50.860;13.662;2023-11-22T05:56:39;97703.94;;;2.69;100.00
32747;BME280;19118;50.860;13.662;2023-11-22T06:01:39;97708.50;;;2.25;100.00
32747;BME280;19118;50.860;13.662;2023-11-22T06:06:39;97711.91;;;1.95;100.00
32747;BME280;19118;50.860;13.662;2023-11-22T06:11:40;97726.06;;;2.44;100.00
32747;BME280;19118;50.860;13.662;2023-11-22T06:16:40;97725.25;;;2.44;100.00
32747;BME280;19118;50.860;13.662;2023-11-22T06:21:41;97737.94;;;2.07;100.00
32747;BME280;19118;50.860;13.662;2023-11-22T06:26:43;97739.75;;;1.63;100.00
32747;BME280;19118;50.860;13.662;2023-11-22T06:31:43;97758.16;;;1.93;100.00
32747;BME280;19118;50.860;13.662;2023-11-22T06:36:43;97771.19;;;1.50;100.00
32747;BME280;19118;50.860;13.662;2023-11-22T06:41:44;97785.84;;;1.62;100.00
32747;BME280;19118;50.860;13.662;2023-11-22T06:46:44;97795.97;;;2.20;100.00
32747;BME280;19118;50.860;13.662;2023-11-22T06:51:44;97788.56;;;2.25;100.00
32747;BME280;19118;50.860;13.662;2023-11-22T06:56:45;97784.88;;;2.48;100.00
32747;BME280;19118;50.860;13.662;2023-11-22T07:01:46;97823.53;;;2.33;100.00
32747;BME280;19118;50.860;13.662;2023-11-22T07:06:46;97817.53;;;2.22;100.00
32747;BME280;19118;50.860;13.662;2023-11-22T07:11:46;97832.66;;;2.39;100.00
32747;BME280;19118;50.860;13.662;2023-11-22T07:16:47;97822.97;;;2.30;100.00
32747;BME280;19118;50.860;13.662;2023-11-22T07:21:47;97810.78;;;1.87;100.00
32747;BME280;19118;50.860;13.662;2023-11-22T07:26:48;97813.38;;;1.87;100.00
32747;BME280;19118;50.860;13.662;2023-11-22T07:31:48;97804.38;;;2.44;100.00
32747;BME280;19118;50.860;13.662;2023-11-22T07:36:49;97805.34;;;1.79;100.00
32747;BME280;19118;50.860;13.662;2023-11-22T07:41:52;97818.41;;;2.11;100.00
32747;BME280;19118;50.860;13.662;2023-11-22T07:46:53;97824.88;;;1.96;100.00
32747;BME280;19118;50.860;13.662;2023-11-22T07:51:54;97852.59;;;2.61;100.00
32747;BME280;19118;50.860;13.662;2023-11-22T07:56:54;97855.03;;;2.21;100.00
32747;BME280;19118;50.860;13.662;2023-11-22T08:01:55;97869.69;;;2.33;100.00
32747;BME280;19118;50.860;13.662;2023-11-22T08:06:55;97869.38;;;2.47;100.00
32747;BME280;19118;50.860;13.662;2023-11-22T08:11:57;97883.75;;;2.74;100.00
32747;BME280;19118;50.860;13.662;2023-11-22T08:16:57;97884.94;;;2.70;100.00
32747;BME280;19118;50.860;13.662;2023-11-22T08:21:57;97887.66;;;2.47;100.00
32747;BME280;19118;50.860;13.662;2023-11-22T08:27:00;97890.84;;;2.72;100.00
32747;BME280;19118;50.860;13.662;2023-11-22T08:32:00;97890.44;;;2.34;100.00
32747;BME280;19118;50.860;13.662;2023-11-22T08:37:02;97882.53;;;2.14;100.00
32747;BME280;19118;50.860;13.662;2023-11-22T08:42:03;97895.03;;;2.42;100.00
32747;BME280;19118;50.860;13.662;2023-11-22T08:47:09;97906.94;;;2.24;100.00
32747;BME280;19118;50.860;13.662;2023-11-22T08:52:09;97917.50;;;2.66;100.00
32747;BME280;19118;50.860;13.662;2023-11-22T08:57:10;97903.69;;;1.99;100.00
32747;BME280;19118;50.860;13.662;2023-11-22T09:02:10;97892.97;;;2.14;100.00
32747;BME280;19118;50.860;13.662;2023-11-22T09:07:12;97894.34;;;1.97;100.00
32747;BME280;19118;50.860;13.662;2023-11-22T09:12:14;97913.47;;;2.82;100.00
32747;BME280;19118;50.860;13.662;2023-11-22T09:17:14;97902.44;;;2.26;100.00
32747;BME280;19118;50.860;13.662;2023-11-22T09:22:15;97908.84;;;2.65;100.00
32747;BME280;19118;50.860;13.662;2023-11-22T09:27:15;97910.88;;;2.61;100.00
32747;BME280;19118;50.860;13.662;2023-11-22T09:32:18;97924.31;;;2.02;100.00
32747;BME280;19118;50.860;13.662;2023-11-22T09:37:18;97921.78;;;2.23;100.00
32747;BME280;19118;50.860;13.662;2023-11-22T09:42:19;97922.78;;;2.43;100.00
32747;BME280;19118;50.860;13.662;2023-11-22T09:47:20;97928.78;;;2.87;100.00
32747;BME280;19118;50.860;13.662;2023-11-22T09:52:22;97917.63;;;2.21;100.00
32747;BME280;19118;50.860;13.662;2023-11-22T09:57:25;97915.31;;;2.71;100.00
32747;BME280;19118;50.860;13.662;2023-11-22T10:02:30;97911.53;;;2.75;100.00
32747;BME280;19118;50.860;13.662;2023-11-22T10:07:30;97910.31;;;3.20;100.00
32747;BME280;19118;50.860;13.662;2023-11-22T10:12:31;97906.25;;;2.86;100.00
32747;BME280;19118;50.860;13.662;2023-11-22T10:17:31;97910.31;;;3.51;100.00
32747;BME280;19118;50.860;13.662;2023-11-22T10:22:43;97931.22;;;3.20;100.00
32747;BME280;19118;50.860;13.662;2023-11-22T10:27:45;97930.09;;;2.60;100.00
32747;BME280;19118;50.860;13.662;2023-11-22T10:32:46;97908.66;;;3.50;100.00
32747;BME280;19118;50.860;13.662;2023-11-22T10:37:47;97919.78;;;2.80;100.00
32747;BME280;19118;50.860;13.662;2023-11-22T10:42:48;97906.41;;;3.66;100.00
32747;BME280;19118;50.860;13.662;2023-11-22T10:47:53;97886.31;;;2.85;100.00
32747;BME280;19118;50.860;13.662;2023-11-22T10:52:57;97888.44;;;2.80;100.00
32747;BME280;19118;50.860;13.662;2023-11-22T10:58:02;97902.75;;;3.17;100.00
32747;BME280;19118;50.860;13.662;2023-11-22T11:03:07;97908.19;;;2.52;100.00
32747;BME280;19118;50.860;13.662;2023-11-22T11:08:12;97910.38;;;3.09;100.00
32747;BME280;19118;50.860;13.662;2023-11-22T11:13:13;97910.38;;;3.09;100.00
32747;BME280;19118;50.860;13.662;2023-11-22T11:18:15;97941.66;;;2.79;100.00
32747;BME280;19118;50.860;13.662;2023-11-22T11:23:17;97965.47;;;2.53;100.00
32747;BME280;19118;50.860;13.662;2023-11-22T11:28:20;97972.16;;;2.78;100.00
32747;BME280;19118;50.860;13.662;2023-11-22T11:33:33;97963.25;;;3.02;100.00
32747;BME280;19118;50.860;13.662;2023-11-22T11:38:35;97959.09;;;2.46;100.00
32747;BME280;19118;50.860;13.662;2023-11-22T11:43:46;97951.59;;;2.85;100.00
32747;BME280;19118;50.860;13.662;2023-11-22T11:48:51;97958.88;;;2.70;100.00
32747;BME280;19118;50.860;13.662;2023-11-22T11:53:53;97961.63;;;2.69;100.00
32747;BME280;19118;50.860;13.662;2023-11-22T11:58:56;97951.13;;;2.48;100.00
32747;BME280;19118;50.860;13.662;2023-11-22T12:04:02;97952.38;;;2.97;100.00
32747;BME280;19118;50.860;13.662;2023-11-22T12:09:03;97952.22;;;2.77;100.00
32747;BME280;19118;50.860;13.662;2023-11-22T12:14:04;97968.34;;;3.03;100.00
32747;BME280;19118;50.860;13.662;2023-11-22T12:19:04;97961.75;;;2.99;100.00
32747;BME280;19118;50.860;13.662;2023-11-22T12:24:06;97941.78;;;2.98;100.00
32747;BME280;19118;50.860;13.662;2023-11-22T12:29:07;97947.56;;;2.81;100.00
32747;BME280;19118;50.860;13.662;2023-11-22T12:34:09;97936.50;;;3.09;100.00
32747;BME280;19118;50.860;13.662;2023-11-22T12:39:10;97928.59;;;2.79;100.00
32747;BME280;19118;50.860;13.662;2023-11-22T12:44:17;97916.63;;;2.76;100.00
32747;BME280;19118;50.860;13.662;2023-11-22T12:49:18;97903.72;;;3.05;100.00
32747;BME280;19118;50.860;13.662;2023-11-22T12:54:19;97905.91;;;3.00;100.00
32747;BME280;19118;50.860;13.662;2023-11-22T12:59:21;97899.59;;;2.61;100.00
32747;BME280;19118;50.860;13.662;2023-11-22T13:04:21;97892.78;;;3.11;100.00
32747;BME280;19118;50.860;13.662;2023-11-22T13:09:22;97897.84;;;3.34;100.00
32747;BME280;19118;50.860;13.662;2023-11-22T13:14:22;97891.59;;;3.46;100.00
32747;BME280;19118;50.860;13.662;2023-11-22T13:19:23;97888.78;;;3.38;100.00
32747;BME280;19118;50.860;13.662;2023-11-22T13:24:25;97894.13;;;3.57;100.00
32747;BME280;19118;50.860;13.662;2023-11-22T13:29:25;97901.16;;;3.36;100.00
32747;BME280;19118;50.860;13.662;2023-11-22T13:34:26;97904.31;;;3.60;100.00
32747;BME280;19118;50.860;13.662;2023-11-22T13:39:26;97910.91;;;3.55;100.00
32747;BME280;19118;50.860;13.662;2023-11-22T13:44:26;97906.72;;;2.59;100.00
32747;BME280;19118;50.860;13.662;2023-11-22T13:49:27;97904.66;;;2.74;100.00
32747;BME280;19118;50.860;13.662;2023-11-22T13:54:27;97929.81;;;2.75;100.00
32747;BME280;19118;50.860;13.662;2023-11-22T13:59:27;97940.66;;;3.12;100.00
32747;BME280;19118;50.860;13.662;2023-11-22T14:04:28;97920.28;;;2.53;100.00
32747;BME280;19118;50.860;13.662;2023-11-22T14:09:28;97922.22;;;3.13;100.00
32747;BME280;19118;50.860;13.662;2023-11-22T14:14:29;97949.56;;;3.09;100.00
32747;BME280;19118;50.860;13.662;2023-11-22T14:19:30;97945.84;;;2.91;100.00
32747;BME280;19118;50.860;13.662;2023-11-22T14:24:30;97933.84;;;2.68;100.00
32747;BME280;19118;50.860;13.662;2023-11-22T14:29:33;97902.72;;;2.76;100.00
32747;BME280;19118;50.860;13.662;2023-11-22T14:34:34;97907.78;;;3.09;100.00
32747;BME280;19118;50.860;13.662;2023-11-22T14:39:34;97912.50;;;2.95;100.00
32747;BME280;19118;50.860;13.662;2023-11-22T14:44:35;97920.94;;;2.87;100.00
32747;BME280;19118;50.860;13.662;2023-11-22T14:49:35;97898.16;;;3.10;100.00
32747;BME280;19118;50.860;13.662;2023-11-22T14:54:36;97888.31;;;3.02;100.00
32747;BME280;19118;50.860;13.662;2023-11-22T14:59:36;97893.94;;;3.18;100.00
32747;BME280;19118;50.860;13.662;2023-11-22T15:04:37;97874.91;;;3.16;100.00
32747;BME280;19118;50.860;13.662;2023-11-22T15:09:38;97882.66;;;3.18;100.00
32747;BME280;19118;50.860;13.662;2023-11-22T15:14:38;97908.72;;;3.08;100.00
32747;BME280;19118;50.860;13.662;2023-11-22T15:19:39;97915.09;;;2.74;100.00
32747;BME280;19118;50.860;13.662;2023-11-22T15:24:42;97942.16;;;2.73;100.00
32747;BME280;19118;50.860;13.662;2023-11-22T15:29:42;97947.72;;;2.36;100.00
32747;BME280;19118;50.860;13.662;2023-11-22T15:34:42;97934.47;;;2.60;100.00
32747;BME280;19118;50.860;13.662;2023-11-22T15:39:43;97935.19;;;2.83;100.00
32747;BME280;19118;50.860;13.662;2023-11-22T15:44:43;97939.50;;;2.84;100.00
32747;BME280;19118;50.860;13.662;2023-11-22T15:49:43;97927.88;;;2.45;100.00
32747;BME280;19118;50.860;13.662;2023-11-22T15:54:44;97917.94;;;2.71;100.00
32747;BME280;19118;50.860;13.662;2023-11-22T15:59:44;97931.25;;;2.68;100.00
32747;BME280;19118;50.860;13.662;2023-11-22T16:04:44;97933.63;;;2.59;100.00
32747;BME280;19118;50.860;13.662;2023-11-22T16:09:46;97926.03;;;2.68;100.00
32747;BME280;19118;50.860;13.662;2023-11-22T16:14:48;97917.50;;;2.86;100.00
32747;BME280;19118;50.860;13.662;2023-11-22T16:19:49;97914.84;;;2.77;100.00
32747;BME280;19118;50.860;13.662;2023-11-22T16:24:49;97921.72;;;2.78;100.00
32747;BME280;19118;50.860;13.662;2023-11-22T16:29:49;97932.47;;;2.63;100.00
32747;BME280;19118;50.860;13.662;2023-11-22T16:34:50;97937.81;;;2.62;100.00
32747;BME280;19118;50.860;13.662;2023-11-22T16:39:51;97926.44;;;2.52;100.00
32747;BME280;19118;50.860;13.662;2023-11-22T16:44:51;97934.16;;;2.53;100.00
32747;BME280;19118;50.860;13.662;2023-11-22T16:49:51;97949.81;;;2.85;100.00
32747;BME280;19118;50.860;13.662;2023-11-22T16:54:52;97932.75;;;3.02;100.00
32747;BME280;19118;50.860;13.662;2023-11-22T16:59:52;97923.09;;;2.82;100.00
32747;BME280;19118;50.860;13.662;2023-11-22T17:04:53;97933.41;;;2.62;100.00
32747;BME280;19118;50.860;13.662;2023-11-22T17:09:57;97935.34;;;2.81;100.00
32747;BME280;19118;50.860;13.662;2023-11-22T17:14:57;97936.06;;;3.04;100.00
32747;BME280;19118;50.860;13.662;2023-11-22T17:19:57;97921.72;;;3.19;100.00
32747;BME280;19118;50.860;13.662;2023-11-22T17:24:59;97930.72;;;2.85;100.00
32747;BME280;19118;50.860;13.662;2023-11-22T17:30:00;97920.84;;;3.09;100.00
32747;BME280;19118;50.860;13.662;2023-11-22T17:35:02;97905.09;;;3.00;100.00
32747;BME280;19118;50.860;13.662;2023-11-22T17:40:03;97902.16;;;2.93;100.00
32747;BME280;19118;50.860;13.662;2023-11-22T17:45:05;97908.81;;;3.28;100.00
32747;BME280;19118;50.860;13.662;2023-11-22T17:50:06;97893.88;;;3.30;100.00
32747;BME280;19118;50.860;13.662;2023-11-22T17:55:07;97888.38;;;3.33;100.00
32747;BME280;19118;50.860;13.662;2023-11-22T18:00:09;97891.53;;;3.36;100.00
32747;BME280;19118;50.860;13.662;2023-11-22T18:05:12;97872.41;;;3.36;100.00
32747;BME280;19118;50.860;13.662;2023-11-22T18:10:13;97879.78;;;3.00;100.00
32747;BME280;19118;50.860;13.662;2023-11-22T18:15:14;97884.44;;;3.17;100.00
32747;BME280;19118;50.860;13.662;2023-11-22T18:20:15;97894.16;;;3.15;100.00
32747;BME280;19118;50.860;13.662;2023-11-22T18:25:15;97895.31;;;3.22;100.00
32747;BME280;19118;50.860;13.662;2023-11-22T18:30:16;97893.88;;;3.09;100.00
32747;BME280;19118;50.860;13.662;2023-11-22T18:35:16;97883.94;;;3.03;100.00
32747;BME280;19118;50.860;13.662;2023-11-22T18:40:16;97866.53;;;3.43;100.00
32747;BME280;19118;50.860;13.662;2023-11-22T18:45:17;97851.91;;;3.31;100.00
32747;BME280;19118;50.860;13.662;2023-11-22T18:50:17;97848.28;;;3.22;100.00
32747;BME280;19118;50.860;13.662;2023-11-22T18:55:18;97822.22;;;3.42;100.00
32747;BME280;19118;50.860;13.662;2023-11-22T19:00:19;97806.97;;;3.07;100.00
32747;BME280;19118;50.860;13.662;2023-11-22T19:05:20;97805.88;;;3.09;100.00
32747;BME280;19118;50.860;13.662;2023-11-22T19:10:21;97813.16;;;3.15;100.00
32747;BME280;19118;50.860;13.662;2023-11-22T19:15:21;97818.78;;;3.11;100.00
32747;BME280;19118;50.860;13.662;2023-11-22T19:20:22;97798.16;;;3.08;100.00
32747;BME280;19118;50.860;13.662;2023-11-22T19:25:26;97786.16;;;3.05;100.00
32747;BME280;19118;50.860;13.662;2023-11-22T19:30:26;97803.94;;;3.11;100.00
32747;BME280;19118;50.860;13.662;2023-11-22T19:35:28;97812.28;;;3.36;100.00
32747;BME280;19118;50.860;13.662;2023-11-22T19:40:29;97828.16;;;3.44;100.00
32747;BME280;19118;50.860;13.662;2023-11-22T19:45:30;97813.69;;;3.40;100.00
32747;BME280;19118;50.860;13.662;2023-11-22T19:50:30;97793.38;;;3.53;100.00
32747;BME280;19118;50.860;13.662;2023-11-22T19:55:31;97789.09;;;3.12;100.00
32747;BME280;19118;50.860;13.662;2023-11-22T20:00:31;97793.81;;;3.28;100.00
32747;BME280;19118;50.860;13.662;2023-11-22T20:05:33;97791.59;;;3.23;100.00
32747;BME280;19118;50.860;13.662;2023-11-22T20:10:34;97792.16;;;3.27;100.00
32747;BME280;19118;50.860;13.662;2023-11-22T20:15:34;97786.00;;;3.37;100.00
32747;BME280;19118;50.860;13.662;2023-11-22T20:20:38;97773.97;;;3.15;100.00
32747;BME280;19118;50.860;13.662;2023-11-22T20:25:38;97774.97;;;2.93;100.00
32747;BME280;19118;50.860;13.662;2023-11-22T20:30:39;97749.84;;;2.72;100.00
32747;BME280;19118;50.860;13.662;2023-11-22T20:35:40;97749.84;;;2.72;100.00
32747;BME280;19118;50.860;13.662;2023-11-22T20:40:41;97725.59;;;2.90;100.00
32747;BME280;19118;50.860;13.662;2023-11-22T20:45:41;97713.38;;;2.91;100.00
32747;BME280;19118;50.860;13.662;2023-11-22T20:50:41;97696.19;;;2.88;100.00
32747;BME280;19118;50.860;13.662;2023-11-22T20:55:42;97679.78;;;2.77;100.00
32747;BME280;19118;50.860;13.662;2023-11-22T21:00:42;97677.34;;;2.85;100.00
32747;BME280;19118;50.860;13.662;2023-11-22T21:05:43;97674.38;;;2.99;100.00
32747;BME280;19118;50.860;13.662;2023-11-22T21:10:44;97672.13;;;2.54;100.00
32747;BME280;19118;50.860;13.662;2023-11-22T21:15:44;97698.59;;;2.71;100.00
32747;BME280;19118;50.860;13.662;2023-11-22T21:20:46;97689.59;;;2.94;100.00
32747;BME280;19118;50.860;13.662;2023-11-22T21:25:48;97669.94;;;2.90;100.00
32747;BME280;19118;50.860;13.662;2023-11-22T21:30:50;97670.13;;;2.68;100.00
32747;BME280;19118;50.860;13.662;2023-11-22T21:35:50;97669.66;;;2.93;100.00
32747;BME280;19118;50.860;13.662;2023-11-22T21:40:51;97652.53;;;2.70;100.00
32747;BME280;19118;50.860;13.662;2023-11-22T21:45:51;97648.00;;;3.12;100.00
32747;BME280;19118;50.860;13.662;2023-11-22T21:50:52;97651.13;;;2.96;100.00
32747;BME280;19118;50.860;13.662;2023-11-22T21:55:52;97659.22;;;2.93;100.00
32747;BME280;19118;50.860;13.662;2023-11-22T22:00:53;97646.63;;;2.68;100.00
32747;BME280;19118;50.860;13.662;2023-11-22T22:05:54;97633.41;;;3.09;100.00
32747;BME280;19118;50.860;13.662;2023-11-22T22:10:54;97630.38;;;3.04;100.00
32747;BME280;19118;50.860;13.662;2023-11-22T22:15:55;97642.56;;;2.94;100.00
32747;BME280;19118;50.860;13.662;2023-11-22T22:20:56;97614.03;;;3.12;100.00
32747;BME280;19118;50.860;13.662;2023-11-22T22:25:56;97616.28;;;2.76;100.00
32747;BME280;19118;50.860;13.662;2023-11-22T22:30:56;97592.13;;;2.93;100.00
32747;BME280;19118;50.860;13.662;2023-11-22T22:35:57;97582.38;;;2.86;100.00
32747;BME280;19118;50.860;13.662;2023-11-22T22:40:58;97581.69;;;2.84;100.00
32747;BME280;19118;50.860;13.662;2023-11-22T22:45:58;97582.13;;;3.08;100.00
32747;BME280;19118;50.860;13.662;2023-11-22T22:51:01;97569.44;;;2.94;100.00
32747;BME280;19118;50.860;13.662;2023-11-22T22:56:02;97556.34;;;2.65;100.00
32747;BME280;19118;50.860;13.662;2023-11-22T23:01:03;97564.47;;;2.81;100.00
32747;BME280;19118;50.860;13.662;2023-11-22T23:06:04;97549.25;;;3.15;100.00
32747;BME280;19118;50.860;13.662;2023-11-22T23:11:05;97535.75;;;2.91;100.00
32747;BME280;19118;50.860;13.662;2023-11-22T23:16:06;97529.97;;;2.78;100.00
32747;BME280;19118;50.860;13.662;2023-11-22T23:21:08;97527.91;;;2.72;100.00
32747;BME280;19118;50.860;13.662;2023-11-22T23:26:09;97537.41;;;2.73;100.00
32747;BME280;19118;50.860;13.662;2023-11-22T23:31:09;97529.69;;;2.81;100.00
32747;BME280;19118;50.860;13.662;2023-11-22T23:36:10;97544.81;;;2.68;100.00
32747;BME280;19118;50.860;13.662;2023-11-22T23:41:11;97528.88;;;2.90;100.00
32747;BME280;19118;50.860;13.662;2023-11-22T23:46:12;97523.66;;;2.90;100.00
32747;BME280;19118;50.860;13.662;2023-11-22T23:51:12;97515.97;;;3.08;100.00
32747;BME280;19118;50.860;13.662;2023-11-22T23:56:13;97516.81;;;2.99;100.00
